Westville, Connecticut
Current Conditions -  °F | °C
As of 11:53 AM on Wednesday 22 Oct 2014 (Local Time) from KHVN Reporting Station
Overcast Overcast  
Wind Chill: 15°   Ceiling: 1600
Heat Index: 15°   Visibility: 10mi
Dew Point: 11°   Wind: 20mph
Humidity: 75%   Direction: 20°NNE
Pressure: 29.93"   Gusts: 26mph
Location:  41.3258°N, 72.9705°W
Report Text: KHVN 221553Z 02017G23KT 10SM BKN016 OVC021 15/11 A2993 RMK AO2 PK WND 02026/1455 SLP133 T01500106
Loading
Personal Weather Stations






























Interactive Weather Map
Tropical Storm Tracking
New forecast layout! Learn more

10-Day Weather Forecast

Advertisements
Track Severe Weather on mobile